createdAt,value
2023-03-07T00:01:18.794Z,8.70
2023-03-07T00:03:45.312Z,8.90
2023-03-07T00:06:11.876Z,8.80
2023-03-07T00:08:38.367Z,8.80
2023-03-07T00:11:06.832Z,8.80
2023-03-07T00:13:36.794Z,8.70
2023-03-07T00:16:03.373Z,8.80
2023-03-07T00:18:29.977Z,8.80
2023-03-07T00:20:56.474Z,8.80
2023-03-07T00:23:22.981Z,8.80
2023-03-07T00:25:54.831Z,8.80
2023-03-07T00:28:21.332Z,8.70
2023-03-07T00:30:47.843Z,8.80
2023-03-07T00:33:14.331Z,8.80
2023-03-07T00:35:40.849Z,8.80
2023-03-07T00:38:07.345Z,8.80
2023-03-07T00:40:33.854Z,8.70
2023-03-07T00:43:00.343Z,8.70
2023-03-07T00:45:26.875Z,8.80
2023-03-07T00:47:53.380Z,8.70
2023-03-07T00:50:19.910Z,8.80
2023-03-07T00:52:46.395Z,8.80
2023-03-07T00:55:12.919Z,8.80
2023-03-07T00:57:39.413Z,8.80
2023-03-07T01:00:06.000Z,8.90
2023-03-07T01:02:32.493Z,8.80
2023-03-07T01:04:58.977Z,8.80
2023-03-07T01:07:25.549Z,8.80
2023-03-07T01:09:52.056Z,8.80
2023-03-07T01:12:18.559Z,8.80
2023-03-07T01:14:45.045Z,8.80
2023-03-07T01:17:11.538Z,8.80
2023-03-07T01:19:38.033Z,8.60
2023-03-07T01:22:04.515Z,8.80
2023-03-07T01:24:31.007Z,8.80
2023-03-07T01:26:57.491Z,8.80
2023-03-07T01:29:23.999Z,8.60
2023-03-07T01:31:50.512Z,8.80
2023-03-07T01:34:18.852Z,8.80
2023-03-07T01:36:45.395Z,8.80
2023-03-07T01:39:11.932Z,8.80
2023-03-07T01:41:38.453Z,8.80
2023-03-07T01:44:04.935Z,8.90
2023-03-07T01:46:31.420Z,8.80
2023-03-07T01:48:57.908Z,8.80
2023-03-07T01:51:24.409Z,8.70
2023-03-07T01:53:50.884Z,8.80
2023-03-07T01:56:17.401Z,8.80
2023-03-07T01:58:43.893Z,8.80
2023-03-07T02:01:10.422Z,8.90
2023-03-07T02:03:36.920Z,8.80
2023-03-07T02:06:03.440Z,8.70
2023-03-07T02:08:29.945Z,8.80
2023-03-07T02:10:56.486Z,8.90
2023-03-07T02:13:22.976Z,8.90
2023-03-07T02:15:49.506Z,8.80
2023-03-07T02:18:16.008Z,8.80
2023-03-07T02:20:42.544Z,8.70
2023-03-07T02:23:09.043Z,8.70
2023-03-07T02:25:35.561Z,8.70
2023-03-07T02:28:02.072Z,8.80
2023-03-07T02:30:28.585Z,8.70
2023-03-07T02:32:55.075Z,8.80
2023-03-07T02:35:21.572Z,8.80
2023-03-07T02:37:48.065Z,8.90
2023-03-07T02:40:14.567Z,8.90
2023-03-07T02:42:41.043Z,8.90
2023-03-07T02:45:07.523Z,8.90
2023-03-07T02:47:34.037Z,9.00
2023-03-07T02:50:00.558Z,8.90
2023-03-07T02:52:27.045Z,8.90
2023-03-07T02:54:53.500Z,8.70
2023-03-07T02:57:20.001Z,8.80
2023-03-07T02:59:46.479Z,8.80
2023-03-07T03:02:12.961Z,8.80
2023-03-07T03:04:39.482Z,8.90
2023-03-07T03:07:06.001Z,8.90
2023-03-07T03:09:32.493Z,8.90
2023-03-07T03:11:58.980Z,9.10
2023-03-07T03:14:25.459Z,9.10
2023-03-07T03:16:51.944Z,9.10
2023-03-07T03:19:18.428Z,8.90
2023-03-07T03:21:44.900Z,8.90
2023-03-07T03:24:11.407Z,8.80
2023-03-07T03:26:37.878Z,8.90
2023-03-07T03:29:04.364Z,8.90
2023-03-07T03:31:30.878Z,8.80
2023-03-07T03:33:57.364Z,8.80
2023-03-07T03:36:23.852Z,9.00
2023-03-07T03:38:50.332Z,8.90
2023-03-07T03:41:16.855Z,8.80
2023-03-07T03:43:43.312Z,8.80
2023-03-07T03:46:09.815Z,8.80
2023-03-07T03:48:36.289Z,8.90
2023-03-07T03:51:02.760Z,8.90
2023-03-07T03:53:29.247Z,8.80
2023-03-07T03:55:55.721Z,8.90
2023-03-07T03:58:22.201Z,8.90
2023-03-07T04:00:48.686Z,8.90
2023-03-07T04:03:15.164Z,8.80
2023-03-07T04:05:41.655Z,9.00
2023-03-07T04:08:08.129Z,9.10
2023-03-07T04:10:34.585Z,9.00
2023-03-07T04:13:01.062Z,8.90
2023-03-07T04:15:27.535Z,9.00
2023-03-07T04:17:54.012Z,8.80
2023-03-07T04:20:20.491Z,8.80
2023-03-07T04:22:46.976Z,8.80
2023-03-07T04:25:13.462Z,8.80
2023-03-07T04:27:39.942Z,8.80
2023-03-07T04:30:06.437Z,8.80
2023-03-07T04:32:37.098Z,8.70
2023-03-07T04:35:03.587Z,8.80
2023-03-07T04:37:31.003Z,8.90
2023-03-07T04:39:57.478Z,9.00
2023-03-07T04:42:23.958Z,9.00
2023-03-07T04:44:50.440Z,8.90
2023-03-07T04:47:19.028Z,8.90
2023-03-07T04:49:45.512Z,9.00
2023-03-07T04:52:12.024Z,8.90
2023-03-07T04:54:38.506Z,8.80
2023-03-07T04:57:05.017Z,8.80
2023-03-07T04:59:34.366Z,8.70
2023-03-07T05:02:00.888Z,8.70
2023-03-07T05:04:27.488Z,8.70
2023-03-07T05:06:53.991Z,8.80
2023-03-07T05:09:20.478Z,8.80
2023-03-07T05:11:46.965Z,8.90
2023-03-07T05:14:13.452Z,8.80
2023-03-07T05:16:39.919Z,8.90
2023-03-07T05:19:06.432Z,9.10
2023-03-07T05:21:32.931Z,8.90
2023-03-07T05:23:59.444Z,8.80
2023-03-07T05:26:25.913Z,8.70
2023-03-07T05:28:52.392Z,8.70
2023-03-07T05:31:18.938Z,8.60
2023-03-07T05:33:45.487Z,8.70
2023-03-07T05:36:11.959Z,8.60
2023-03-07T05:38:38.441Z,8.60
2023-03-07T05:41:04.923Z,8.70
2023-03-07T05:43:31.407Z,8.70
2023-03-07T05:45:57.938Z,8.80
2023-03-07T05:48:24.492Z,8.80
2023-03-07T05:50:50.988Z,8.80
2023-03-07T05:53:17.473Z,8.80
2023-03-07T05:55:43.934Z,8.80
2023-03-07T05:58:10.427Z,8.70
2023-03-07T06:00:36.916Z,8.70
2023-03-07T06:03:03.515Z,8.80
2023-03-07T06:05:30.044Z,8.70
2023-03-07T06:07:56.547Z,8.70
2023-03-07T06:10:23.034Z,8.70
2023-03-07T06:12:49.511Z,8.70
2023-03-07T06:15:15.993Z,8.60
2023-03-07T06:17:42.486Z,8.70
2023-03-07T06:20:08.970Z,8.70
2023-03-07T06:22:35.445Z,8.70
2023-03-07T06:25:01.926Z,8.70
2023-03-07T06:27:28.422Z,8.80
2023-03-07T06:29:54.905Z,8.80
2023-03-07T06:32:21.492Z,8.80
2023-03-07T06:34:47.999Z,8.90
2023-03-07T06:37:14.475Z,8.90
2023-03-07T06:39:40.958Z,8.80
2023-03-07T06:42:07.443Z,8.70
2023-03-07T06:44:37.127Z,8.90
2023-03-07T06:47:03.600Z,9.00
2023-03-07T06:49:30.086Z,8.90
2023-03-07T06:51:56.565Z,8.80
2023-03-07T06:54:23.084Z,8.80
2023-03-07T06:56:49.556Z,8.80
2023-03-07T06:59:16.063Z,8.80
2023-03-07T07:01:42.553Z,8.80
2023-03-07T07:04:13.127Z,8.80
2023-03-07T07:06:39.585Z,8.90
2023-03-07T07:09:06.094Z,8.80
2023-03-07T07:11:32.572Z,8.90
2023-03-07T07:13:59.093Z,8.90
2023-03-07T07:16:25.672Z,8.80
2023-03-07T07:18:52.210Z,8.80
2023-03-07T07:21:19.100Z,8.90
2023-03-07T07:23:45.600Z,8.80
2023-03-07T07:26:12.074Z,8.70
2023-03-07T07:28:38.545Z,8.80
2023-03-07T07:31:05.038Z,8.80
2023-03-07T07:33:31.610Z,8.90
2023-03-07T07:35:58.163Z,8.70
2023-03-07T07:38:24.732Z,8.80
2023-03-07T07:40:51.234Z,8.70
2023-03-07T07:43:17.710Z,8.80
2023-03-07T07:45:44.259Z,8.80
2023-03-07T07:48:10.762Z,8.70
2023-03-07T07:50:37.259Z,8.70
2023-03-07T07:53:03.757Z,8.70
2023-03-07T07:55:30.268Z,8.60
2023-03-07T07:57:56.743Z,8.60
2023-03-07T08:00:23.247Z,8.70
2023-03-07T08:02:49.730Z,8.80
2023-03-07T08:05:16.210Z,8.80
2023-03-07T08:07:42.679Z,8.70
2023-03-07T08:10:09.151Z,8.80
2023-03-07T08:12:35.611Z,8.90
2023-03-07T08:15:02.142Z,8.90
2023-03-07T08:17:28.621Z,8.90
2023-03-07T08:19:55.137Z,8.90
2023-03-07T08:22:21.628Z,8.80
2023-03-07T08:24:48.176Z,8.70
2023-03-07T08:27:14.635Z,8.80
2023-03-07T08:29:41.129Z,8.80
2023-03-07T08:32:07.641Z,8.70
2023-03-07T08:34:34.148Z,8.80
2023-03-07T08:37:00.625Z,8.70
2023-03-07T08:39:27.109Z,8.60
2023-03-07T08:41:53.597Z,8.60
2023-03-07T08:44:20.062Z,8.70
2023-03-07T08:46:46.545Z,8.70
2023-03-07T08:49:13.003Z,8.60
2023-03-07T08:51:43.244Z,8.70
2023-03-07T08:54:09.731Z,8.90
2023-03-07T08:56:36.266Z,8.90
2023-03-07T08:59:07.323Z,8.80
2023-03-07T09:01:33.810Z,8.80
2023-03-07T09:04:00.312Z,8.80
2023-03-07T09:06:26.811Z,8.90
2023-03-07T09:08:53.281Z,8.80
2023-03-07T09:11:19.751Z,8.70
2023-03-07T09:13:52.310Z,8.60
2023-03-07T09:16:19.600Z,8.70
2023-03-07T09:18:46.100Z,8.70
2023-03-07T09:21:12.611Z,8.90
2023-03-07T09:23:39.076Z,8.80
2023-03-07T09:26:05.586Z,8.80
2023-03-07T09:28:32.072Z,8.90
2023-03-07T09:30:58.584Z,8.80
2023-03-07T09:33:25.057Z,8.90
2023-03-07T09:35:51.635Z,8.90
2023-03-07T09:38:18.137Z,8.70
2023-03-07T09:40:44.663Z,8.70
2023-03-07T09:43:11.134Z,8.80
2023-03-07T09:45:39.240Z,8.90
2023-03-07T09:48:05.958Z,8.90
2023-03-07T09:50:32.434Z,9.10
2023-03-07T09:52:58.895Z,9.20
2023-03-07T09:55:25.359Z,9.10
2023-03-07T09:57:51.916Z,9.10
2023-03-07T10:00:18.405Z,9.10
2023-03-07T10:02:44.903Z,9.20
2023-03-07T10:05:11.384Z,9.20
2023-03-07T10:07:37.875Z,9.20
2023-03-07T10:10:04.353Z,9.10
2023-03-07T10:12:30.829Z,9.20
2023-03-07T10:14:57.308Z,9.10
2023-03-07T10:17:23.800Z,9.00
2023-03-07T10:19:50.322Z,9.10
2023-03-07T10:22:17.074Z,9.10
2023-03-07T10:24:43.550Z,9.20
2023-03-07T10:27:13.304Z,9.20
2023-03-07T10:29:39.771Z,9.20
2023-03-07T10:32:07.349Z,9.30
2023-03-07T10:34:33.935Z,9.10
2023-03-07T10:37:08.813Z,9.00
2023-03-07T10:39:35.715Z,9.10
2023-03-07T10:42:02.174Z,9.00
2023-03-07T10:44:28.655Z,8.80
2023-03-07T10:46:56.383Z,8.70
2023-03-07T10:49:23.164Z,8.90
2023-03-07T10:51:49.988Z,8.80
2023-03-07T10:54:16.468Z,8.70
2023-03-07T10:56:49.304Z,8.90
2023-03-07T10:59:15.778Z,9.00
2023-03-07T11:01:42.299Z,8.90
2023-03-07T11:04:08.802Z,8.80
2023-03-07T11:06:35.301Z,8.80
2023-03-07T11:09:04.000Z,8.80
2023-03-07T11:11:31.342Z,8.90
2023-03-07T11:13:57.816Z,8.80
2023-03-07T11:16:24.375Z,9.00
2023-03-07T11:18:50.870Z,9.10
2023-03-07T11:21:17.394Z,9.00
2023-03-07T11:23:43.916Z,9.00
2023-03-07T11:26:10.453Z,8.90
2023-03-07T11:28:36.935Z,9.00
2023-03-07T11:31:03.427Z,8.90
2023-03-07T11:33:29.915Z,8.80
2023-03-07T11:35:56.460Z,9.00
2023-03-07T11:38:22.972Z,8.90
2023-03-07T11:40:49.463Z,8.80
2023-03-07T11:43:15.955Z,8.90
2023-03-07T11:45:42.453Z,8.80
2023-03-07T11:48:08.927Z,8.70
2023-03-07T11:50:35.407Z,8.80
2023-03-07T11:53:01.873Z,9.00
2023-03-07T11:55:28.349Z,9.00
2023-03-07T11:57:54.832Z,9.00
2023-03-07T12:00:21.323Z,9.10
2023-03-07T12:02:47.869Z,8.90
2023-03-07T12:05:14.377Z,8.80
2023-03-07T12:07:40.883Z,8.80
2023-03-07T12:10:07.366Z,8.90
2023-03-07T12:12:33.875Z,9.00
2023-03-07T12:15:00.357Z,9.00
2023-03-07T12:17:26.867Z,8.90
2023-03-07T12:19:53.390Z,8.80
2023-03-07T12:22:19.882Z,9.00
2023-03-07T12:24:46.374Z,9.10
2023-03-07T12:27:12.867Z,9.10
2023-03-07T12:29:39.333Z,9.10
2023-03-07T12:32:05.983Z,8.90
2023-03-07T12:34:32.543Z,8.90
2023-03-07T12:36:59.049Z,9.10
2023-03-07T12:39:25.685Z,9.00
2023-03-07T12:41:52.210Z,9.00
2023-03-07T12:44:18.689Z,9.10
2023-03-07T12:46:45.171Z,8.90
2023-03-07T12:49:11.657Z,9.00
2023-03-07T12:51:38.145Z,9.00
2023-03-07T12:54:04.648Z,9.00
2023-03-07T12:56:31.136Z,9.00
2023-03-07T12:58:57.630Z,9.10
2023-03-07T13:01:24.209Z,9.20
2023-03-07T13:03:50.793Z,9.20
2023-03-07T13:06:17.333Z,9.00
2023-03-07T13:08:43.826Z,9.10
2023-03-07T13:11:10.302Z,9.00
2023-03-07T13:13:36.798Z,9.00
2023-03-07T13:16:03.282Z,8.80
2023-03-07T13:18:29.781Z,8.90
2023-03-07T13:20:56.257Z,9.00
2023-03-07T13:23:25.513Z,9.00
2023-03-07T13:25:52.031Z,9.10
2023-03-07T13:28:18.534Z,9.10
2023-03-07T13:30:45.060Z,9.10
2023-03-07T13:33:11.575Z,9.20
2023-03-07T13:35:38.074Z,9.20
2023-03-07T13:38:04.609Z,9.20
2023-03-07T13:40:31.071Z,9.20
2023-03-07T13:42:57.552Z,9.20
2023-03-07T13:45:24.042Z,9.30
2023-03-07T13:47:50.492Z,9.10
2023-03-07T13:50:16.968Z,9.40
2023-03-07T13:52:43.438Z,9.40
2023-03-07T13:55:09.952Z,9.30
2023-03-07T13:57:36.442Z,9.30
2023-03-07T14:00:02.922Z,9.10
2023-03-07T14:02:29.360Z,9.20
2023-03-07T14:04:55.914Z,9.20
2023-03-07T14:07:22.417Z,9.10
2023-03-07T14:09:48.938Z,9.10
2023-03-07T14:12:15.413Z,9.10
2023-03-07T14:14:41.890Z,8.90
2023-03-07T14:17:08.427Z,9.00
2023-03-07T14:19:34.929Z,9.00
2023-03-07T14:22:01.414Z,9.00
2023-03-07T14:24:27.902Z,9.00
2023-03-07T14:26:54.376Z,9.00
2023-03-07T14:29:20.863Z,9.00
2023-03-07T14:31:47.355Z,9.00
2023-03-07T14:34:13.867Z,9.10
2023-03-07T14:36:40.344Z,9.20
2023-03-07T14:39:06.864Z,9.20
2023-03-07T14:41:33.349Z,9.20
2023-03-07T14:43:59.848Z,9.10
2023-03-07T14:46:26.398Z,9.10
2023-03-07T14:48:54.651Z,9.20
2023-03-07T14:51:21.288Z,9.00
2023-03-07T14:53:47.839Z,9.00
2023-03-07T14:56:14.315Z,9.10
2023-03-07T14:58:40.816Z,9.20
2023-03-07T15:01:07.548Z,9.10
2023-03-07T15:03:34.031Z,9.00
2023-03-07T15:06:00.516Z,9.20
2023-03-07T15:08:26.981Z,9.20
2023-03-07T15:10:53.464Z,9.00
2023-03-07T15:13:19.954Z,9.20
2023-03-07T15:15:46.453Z,9.20
2023-03-07T15:18:12.941Z,9.20
2023-03-07T15:20:39.414Z,9.20
2023-03-07T15:23:05.899Z,9.00
2023-03-07T15:25:32.399Z,9.10
2023-03-07T15:27:58.892Z,9.10
2023-03-07T15:30:25.383Z,9.00
2023-03-07T15:32:51.859Z,9.00
2023-03-07T15:35:18.360Z,9.10
2023-03-07T15:37:44.876Z,9.10
2023-03-07T15:40:11.361Z,9.10
2023-03-07T15:42:37.846Z,9.20
2023-03-07T15:45:04.355Z,9.20
2023-03-07T15:47:30.845Z,9.10
2023-03-07T15:49:57.373Z,9.00
2023-03-07T15:52:23.860Z,9.10
2023-03-07T15:54:50.611Z,9.20
2023-03-07T15:57:17.160Z,9.10
2023-03-07T15:59:43.650Z,9.10
2023-03-07T16:02:10.163Z,8.90
2023-03-07T16:04:36.672Z,9.00
2023-03-07T16:07:07.593Z,9.00
2023-03-07T16:09:34.112Z,9.00
2023-03-07T16:12:00.614Z,9.00
2023-03-07T16:14:27.095Z,9.00
2023-03-07T16:16:53.625Z,8.90
2023-03-07T16:19:20.101Z,9.00
2023-03-07T16:21:46.596Z,9.00
2023-03-07T16:24:13.105Z,8.90
2023-03-07T16:26:39.575Z,9.00
2023-03-07T16:29:06.064Z,8.80
2023-03-07T16:31:32.558Z,8.90
2023-03-07T16:33:59.045Z,8.90
2023-03-07T16:36:25.529Z,9.00
2023-03-07T16:38:52.030Z,8.80
2023-03-07T16:41:18.519Z,8.90
2023-03-07T16:43:45.007Z,8.90
2023-03-07T16:46:11.525Z,8.90
2023-03-07T16:48:38.044Z,8.90
2023-03-07T16:51:04.565Z,9.00
2023-03-07T16:53:31.051Z,9.00
2023-03-07T16:55:57.545Z,8.90
2023-03-07T16:58:24.020Z,8.80
2023-03-07T17:00:50.546Z,8.90
2023-03-07T17:03:17.043Z,8.90
2023-03-07T17:05:43.587Z,8.80
2023-03-07T17:08:10.064Z,8.70
2023-03-07T17:10:36.595Z,8.70
2023-03-07T17:13:03.077Z,8.70
2023-03-07T17:15:29.574Z,8.70
2023-03-07T17:18:01.638Z,8.90
2023-03-07T17:20:28.112Z,8.90
2023-03-07T17:22:54.586Z,8.90
2023-03-07T17:25:21.079Z,8.90
2023-03-07T17:27:47.596Z,8.90
2023-03-07T17:30:14.085Z,8.90
2023-03-07T17:32:40.610Z,8.90
2023-03-07T17:35:07.100Z,8.90
2023-03-07T17:37:33.612Z,9.00
2023-03-07T17:40:00.115Z,9.20
2023-03-07T17:42:26.613Z,9.10
2023-03-07T17:44:53.097Z,8.90
2023-03-07T17:47:19.579Z,9.00
2023-03-07T17:49:46.903Z,9.10
2023-03-07T17:52:13.452Z,9.10
2023-03-07T17:54:40.063Z,9.00
2023-03-07T17:57:06.581Z,9.10
2023-03-07T17:59:33.113Z,9.10
2023-03-07T18:01:59.678Z,9.10
2023-03-07T18:04:26.189Z,9.10
2023-03-07T18:06:52.649Z,9.10
2023-03-07T18:09:19.121Z,9.10
2023-03-07T18:11:45.602Z,9.00
2023-03-07T18:14:12.083Z,9.00
2023-03-07T18:16:38.606Z,9.10
2023-03-07T18:19:06.887Z,9.10
2023-03-07T18:21:34.759Z,9.10
2023-03-07T18:24:01.245Z,9.20
2023-03-07T18:26:27.752Z,9.20
2023-03-07T18:28:54.262Z,9.10
2023-03-07T18:31:20.784Z,9.00
2023-03-07T18:33:47.298Z,9.10
2023-03-07T18:36:13.818Z,9.10
2023-03-07T18:38:40.304Z,9.00
2023-03-07T18:41:06.772Z,8.80
2023-03-07T18:43:33.249Z,9.00
2023-03-07T18:45:59.735Z,8.90
2023-03-07T18:48:26.215Z,9.00
2023-03-07T18:50:52.676Z,9.00
2023-03-07T18:53:19.164Z,8.90
2023-03-07T18:55:45.640Z,8.90
2023-03-07T18:58:12.136Z,8.80
2023-03-07T19:00:38.655Z,8.70
2023-03-07T19:03:05.180Z,9.00
2023-03-07T19:05:31.639Z,8.90
2023-03-07T19:07:58.111Z,9.00
2023-03-07T19:10:24.574Z,8.80
2023-03-07T19:12:51.065Z,8.80
2023-03-07T19:15:17.557Z,8.90
2023-03-07T19:17:44.055Z,8.90
2023-03-07T19:20:10.542Z,8.90
2023-03-07T19:22:37.044Z,8.80
2023-03-07T19:25:03.506Z,8.80
2023-03-07T19:27:29.994Z,8.90
2023-03-07T19:29:56.465Z,8.90
2023-03-07T19:32:23.034Z,9.00
2023-03-07T19:34:49.535Z,8.80
2023-03-07T19:37:16.011Z,8.90
2023-03-07T19:39:42.476Z,8.80
2023-03-07T19:42:08.956Z,8.90
2023-03-07T19:44:35.429Z,9.10
2023-03-07T19:47:01.932Z,9.00
2023-03-07T19:49:28.404Z,9.10
2023-03-07T19:51:54.907Z,9.20
2023-03-07T19:54:21.402Z,9.00
2023-03-07T19:56:47.879Z,9.00
2023-03-07T19:59:14.380Z,9.10
2023-03-07T20:01:40.886Z,9.00
2023-03-07T20:04:07.376Z,9.00
2023-03-07T20:06:33.856Z,9.00
2023-03-07T20:09:00.325Z,8.90
2023-03-07T20:11:27.447Z,9.00
2023-03-07T20:13:54.003Z,9.10
2023-03-07T20:16:20.495Z,9.00
2023-03-07T20:18:47.022Z,8.90
2023-03-07T20:21:13.482Z,8.90
2023-03-07T20:23:39.954Z,9.00
2023-03-07T20:26:06.444Z,9.00
2023-03-07T20:28:32.919Z,8.90
2023-03-07T20:30:59.441Z,9.00
2023-03-07T20:33:26.011Z,9.00
2023-03-07T20:35:52.558Z,9.00
2023-03-07T20:38:19.072Z,8.90
2023-03-07T20:40:45.526Z,8.90
2023-03-07T20:43:12.034Z,8.80
2023-03-07T20:45:38.498Z,8.90
2023-03-07T20:48:04.978Z,8.80
2023-03-07T20:50:31.452Z,8.80
2023-03-07T20:52:57.930Z,8.90
2023-03-07T20:55:24.394Z,9.00
2023-03-07T20:57:50.865Z,9.00
2023-03-07T21:00:17.358Z,9.00
2023-03-07T21:02:44.517Z,9.00
2023-03-07T21:05:11.918Z,8.90
2023-03-07T21:07:38.384Z,9.00
2023-03-07T21:10:07.836Z,8.90
2023-03-07T21:12:34.328Z,8.90
2023-03-07T21:15:00.765Z,8.90
2023-03-07T21:17:31.934Z,9.00
2023-03-07T21:19:58.424Z,9.00
2023-03-07T21:22:25.802Z,8.90
2023-03-07T21:24:52.290Z,8.80
2023-03-07T21:27:18.774Z,8.80
2023-03-07T21:29:45.277Z,8.90
2023-03-07T21:32:11.781Z,8.80
2023-03-07T21:34:38.264Z,8.70
2023-03-07T21:37:04.742Z,8.80
2023-03-07T21:39:31.269Z,9.00
2023-03-07T21:41:57.736Z,8.90
2023-03-07T21:44:24.249Z,8.90
2023-03-07T21:46:50.739Z,9.00
2023-03-07T21:49:17.245Z,8.70
2023-03-07T21:51:43.736Z,8.80
2023-03-07T21:54:10.234Z,8.80
2023-03-07T21:56:36.722Z,8.80
2023-03-07T21:59:03.218Z,8.80
2023-03-07T22:01:29.784Z,8.80
2023-03-07T22:03:56.357Z,8.70
2023-03-07T22:06:22.865Z,8.80
2023-03-07T22:08:49.352Z,8.90
2023-03-07T22:11:15.853Z,9.00
2023-03-07T22:13:42.351Z,9.00
2023-03-07T22:16:08.840Z,8.90
2023-03-07T22:18:35.321Z,8.80
2023-03-07T22:21:01.815Z,8.80
2023-03-07T22:23:28.308Z,8.70
2023-03-07T22:25:54.798Z,8.70
2023-03-07T22:28:21.270Z,8.70
2023-03-07T22:30:47.802Z,8.70
2023-03-07T22:33:14.280Z,8.70
2023-03-07T22:35:40.779Z,8.70
2023-03-07T22:38:07.264Z,8.70
2023-03-07T22:40:33.756Z,8.70
2023-03-07T22:43:00.238Z,8.80
2023-03-07T22:45:26.714Z,8.70
2023-03-07T22:47:53.221Z,8.70
2023-03-07T22:50:19.701Z,8.90
2023-03-07T22:52:46.177Z,8.90
2023-03-07T22:55:12.668Z,8.90
2023-03-07T22:57:39.148Z,8.90
2023-03-07T23:00:05.639Z,8.80
2023-03-07T23:02:32.122Z,8.70
2023-03-07T23:04:58.594Z,8.70
2023-03-07T23:07:25.092Z,9.00
2023-03-07T23:09:51.571Z,8.90
2023-03-07T23:12:18.051Z,8.70
2023-03-07T23:14:44.542Z,8.70
2023-03-07T23:17:11.032Z,8.90
2023-03-07T23:19:37.454Z,8.70
2023-03-07T23:22:03.934Z,8.80
2023-03-07T23:24:30.429Z,8.80
2023-03-07T23:26:56.909Z,8.90
2023-03-07T23:29:23.404Z,8.90
2023-03-07T23:31:49.896Z,8.90
2023-03-07T23:34:16.350Z,8.90
2023-03-07T23:36:42.893Z,8.90
2023-03-07T23:39:09.373Z,9.00
2023-03-07T23:41:35.870Z,9.10
2023-03-07T23:44:02.338Z,9.10
2023-03-07T23:46:28.902Z,9.00
2023-03-07T23:48:55.384Z,8.90
2023-03-07T23:51:21.814Z,9.00
2023-03-07T23:53:48.330Z,9.00
2023-03-07T23:56:14.812Z,8.90
2023-03-07T23:58:41.291Z,8.90
